Terminal Aerodrome Forecast
Issued by NWS Sterling, VA

Current Version | Previous Version | Text Only | Print | Product List | Glossary Off
Versions: 1 2 3 4 5 6 7 8 9 10 11 12 13

415
FTUS41 KLWX 071720
TAFMRB
TAF
KMRB 071720Z 0718/0818 27010KT P6SM SKC
     FM072100 30004KT P6SM FEW200
     FM081600 27009KT P6SM BKN200=

USA.gov is the U.S. government's official web portal to all federal, state and local government web resources and services.